createdAt,value
2019-02-10T00:01:41.838Z,4.87
2019-02-10T00:04:31.093Z,3.80
2019-02-10T00:07:20.629Z,3.60
2019-02-10T00:10:09.326Z,3.08
2019-02-10T00:13:27.230Z,4.60
2019-02-10T00:16:18.494Z,4.53
2019-02-10T00:19:07.699Z,3.95
2019-02-10T00:21:57.532Z,4.40
2019-02-10T00:24:46.787Z,4.05
2019-02-10T00:27:36.072Z,5.10
2019-02-10T00:30:25.351Z,4.00
2019-02-10T00:33:14.178Z,3.65
2019-02-10T00:36:02.956Z,4.17
2019-02-10T00:38:52.268Z,4.15
2019-02-10T00:41:41.600Z,4.20
2019-02-10T00:44:30.751Z,4.45
2019-02-10T00:47:20.242Z,4.40
2019-02-10T00:50:09.507Z,4.72
2019-02-10T00:52:58.476Z,3.47
2019-02-10T00:55:47.911Z,4.05
2019-02-10T00:58:37.111Z,3.60
2019-02-10T01:01:26.316Z,3.50
2019-02-10T01:04:15.448Z,3.70
2019-02-10T01:07:04.721Z,4.15
2019-02-10T01:09:54.310Z,3.67
2019-02-10T01:12:45.513Z,3.12
2019-02-10T01:15:35.088Z,3.58
2019-02-10T01:18:24.902Z,3.60
2019-02-10T01:21:13.607Z,2.83
2019-02-10T01:24:03.508Z,4.65
2019-02-10T01:26:52.675Z,4.08
2019-02-10T01:29:42.051Z,4.60
2019-02-10T01:32:31.317Z,5.92
2019-02-10T01:35:20.066Z,4.70
2019-02-10T01:38:09.535Z,3.70
2019-02-10T01:40:58.871Z,3.77
2019-02-10T01:43:48.182Z,5.50
2019-02-10T01:46:37.330Z,5.15
2019-02-10T01:49:26.218Z,4.10
2019-02-10T01:52:15.382Z,4.12
2019-02-10T01:55:07.888Z,5.12
2019-02-10T01:57:56.891Z,4.20
2019-02-10T02:00:45.447Z,3.83
2019-02-10T02:03:34.713Z,4.08
2019-02-10T02:06:23.679Z,4.28
2019-02-10T02:09:14.549Z,4.40
2019-02-10T02:12:04.105Z,4.42
2019-02-10T02:14:53.528Z,3.95
2019-02-10T02:17:43.106Z,4.72
2019-02-10T02:20:32.198Z,4.35
2019-02-10T02:23:22.772Z,4.10
2019-02-10T02:26:11.611Z,3.77
2019-02-10T02:29:00.901Z,3.90
2019-02-10T02:31:49.891Z,5.12
2019-02-10T02:34:39.234Z,3.70
2019-02-10T02:37:28.095Z,4.47
2019-02-10T02:40:16.648Z,4.33
2019-02-10T02:43:05.709Z,4.00
2019-02-10T02:45:54.736Z,4.03
2019-02-10T02:48:44.064Z,4.12
2019-02-10T02:51:33.122Z,3.60
2019-02-10T02:54:22.139Z,4.00
2019-02-10T02:57:11.623Z,3.55
2019-02-10T03:00:00.816Z,4.97
2019-02-10T03:02:49.624Z,3.83
2019-02-10T03:05:38.943Z,4.00
2019-02-10T03:08:28.225Z,3.40
2019-02-10T03:11:17.582Z,2.90
2019-02-10T03:14:08.947Z,3.52
2019-02-10T03:16:57.826Z,3.85
2019-02-10T03:19:47.348Z,3.72
2019-02-10T03:22:35.860Z,4.67
2019-02-10T03:25:25.572Z,3.25
2019-02-10T03:28:14.711Z,3.62
2019-02-10T03:31:04.344Z,4.25
2019-02-10T03:33:53.892Z,3.65
2019-02-10T03:36:43.098Z,3.40
2019-02-10T03:39:32.023Z,3.92
2019-02-10T03:42:20.909Z,3.30
2019-02-10T03:45:11.126Z,3.60
2019-02-10T03:48:00.386Z,4.20
2019-02-10T03:50:50.022Z,2.98
2019-02-10T03:53:39.342Z,3.65
2019-02-10T03:56:28.765Z,3.70
2019-02-10T03:59:17.740Z,3.10
2019-02-10T04:02:06.835Z,3.62
2019-02-10T04:04:55.545Z,3.40
2019-02-10T04:07:44.391Z,3.50
2019-02-10T04:10:33.682Z,3.35
2019-02-10T04:13:22.946Z,3.80
2019-02-10T04:16:12.420Z,2.87
2019-02-10T04:19:01.378Z,3.20
2019-02-10T04:21:50.363Z,2.90
2019-02-10T04:24:39.823Z,2.90
2019-02-10T04:27:28.818Z,3.25
2019-02-10T04:30:18.976Z,3.65
2019-02-10T04:33:08.293Z,4.60
2019-02-10T04:35:57.824Z,3.40
2019-02-10T04:38:46.999Z,3.30
2019-02-10T04:41:36.357Z,3.75
2019-02-10T04:44:25.130Z,3.72
2019-02-10T04:47:14.478Z,3.80
2019-02-10T04:50:04.340Z,3.05
2019-02-10T04:52:53.701Z,4.95
2019-02-10T04:55:43.413Z,3.50
2019-02-10T04:58:32.378Z,3.37
2019-02-10T05:01:21.550Z,3.35
2019-02-10T05:04:10.882Z,3.33
2019-02-10T05:07:00.492Z,3.10
2019-02-10T05:09:49.970Z,3.92
2019-02-10T05:12:38.806Z,3.50
2019-02-10T05:15:27.952Z,2.90
2019-02-10T05:18:16.778Z,3.92
2019-02-10T05:21:06.396Z,2.80
2019-02-10T05:24:03.217Z,3.40
2019-02-10T05:26:46.302Z,3.10
2019-02-10T05:29:35.970Z,2.87
2019-02-10T05:32:24.863Z,2.90
2019-02-10T05:35:14.315Z,3.10
2019-02-10T05:38:04.616Z,3.10
2019-02-10T05:40:54.404Z,2.85
2019-02-10T05:43:43.192Z,3.33
2019-02-10T05:46:32.896Z,3.20
2019-02-10T05:49:22.028Z,3.20
2019-02-10T05:52:11.576Z,3.15
2019-02-10T05:55:00.949Z,4.08
2019-02-10T05:57:50.180Z,2.55
2019-02-10T06:00:39.483Z,3.20
2019-02-10T06:03:28.543Z,2.75
2019-02-10T06:06:17.921Z,3.15
2019-02-10T06:09:07.087Z,3.33
2019-02-10T06:11:55.981Z,2.75
2019-02-10T06:14:45.319Z,2.65
2019-02-10T06:17:34.271Z,2.75
2019-02-10T06:20:23.556Z,3.15
2019-02-10T06:23:12.194Z,2.50
2019-02-10T06:26:01.887Z,2.65
2019-02-10T06:28:50.884Z,2.90
2019-02-10T06:31:40.214Z,3.10
2019-02-10T06:34:28.985Z,3.20
2019-02-10T06:37:18.146Z,3.50
2019-02-10T06:40:09.268Z,2.92
2019-02-10T06:42:58.312Z,3.25
2019-02-10T06:45:48.094Z,3.15
2019-02-10T06:48:36.451Z,2.70
2019-02-10T06:51:25.665Z,2.35
2019-02-10T06:54:14.114Z,3.42
2019-02-10T06:57:03.641Z,3.05
2019-02-10T06:59:54.848Z,2.85
2019-02-10T07:03:22.031Z,2.77
2019-02-10T07:06:13.184Z,3.52
2019-02-10T07:09:02.431Z,3.10
2019-02-10T07:11:51.866Z,2.55
2019-02-10T07:14:41.282Z,2.47
2019-02-10T07:17:34.645Z,3.60
2019-02-10T07:20:41.380Z,3.25
2019-02-10T07:24:04.932Z,2.40
2019-02-10T07:26:56.042Z,3.27
2019-02-10T07:30:07.062Z,3.20
2019-02-10T07:33:02.985Z,3.02
2019-02-10T07:36:05.977Z,2.70
2019-02-10T07:39:17.477Z,3.00
2019-02-10T07:42:17.345Z,2.80
2019-02-10T07:45:22.232Z,3.40
2019-02-10T07:48:43.035Z,2.40
2019-02-10T07:51:39.561Z,2.50
2019-02-10T07:55:01.692Z,2.50
2019-02-10T07:58:40.225Z,3.15
2019-02-10T08:02:01.147Z,2.90
2019-02-10T08:05:16.016Z,3.02
2019-02-10T08:08:46.439Z,2.65
2019-02-10T08:12:10.200Z,3.10
2019-02-10T08:15:06.456Z,3.72
2019-02-10T08:18:33.196Z,4.65
2019-02-10T08:21:46.381Z,4.47
2019-02-10T08:25:19.249Z,3.83
2019-02-10T08:28:24.244Z,2.58
2019-02-10T08:31:43.429Z,2.85
2019-02-10T08:34:40.254Z,3.58
2019-02-10T08:37:52.075Z,2.90
2019-02-10T08:41:24.967Z,3.02
2019-02-10T08:44:27.240Z,2.85
2019-02-10T08:47:51.839Z,3.12
2019-02-10T08:51:06.251Z,3.12
2019-02-10T08:53:55.363Z,3.17
2019-02-10T08:56:44.771Z,3.27
2019-02-10T08:59:34.282Z,3.35
2019-02-10T09:02:23.321Z,2.52
2019-02-10T09:05:12.639Z,4.30
2019-02-10T09:08:02.222Z,2.77
2019-02-10T09:10:51.742Z,3.25
2019-02-10T09:13:41.067Z,2.70
2019-02-10T09:16:29.871Z,2.92
2019-02-10T09:19:20.554Z,3.05
2019-02-10T09:22:09.825Z,2.77
2019-02-10T09:24:59.173Z,3.10
2019-02-10T09:27:48.337Z,3.30
2019-02-10T09:30:37.265Z,3.72
2019-02-10T09:33:26.575Z,2.83
2019-02-10T09:36:15.851Z,2.55
2019-02-10T09:39:10.961Z,2.83
2019-02-10T09:41:57.371Z,2.72
2019-02-10T09:44:46.730Z,3.25
2019-02-10T09:47:36.979Z,2.70
2019-02-10T09:50:26.183Z,3.10
2019-02-10T09:53:15.063Z,3.40
2019-02-10T09:56:05.028Z,3.30
2019-02-10T09:58:54.065Z,3.20
2019-02-10T10:01:43.256Z,4.15
2019-02-10T10:04:32.325Z,3.45
2019-02-10T10:07:21.743Z,3.45
2019-02-10T10:10:14.010Z,3.30
2019-02-10T10:13:02.645Z,2.80
2019-02-10T10:15:51.960Z,3.70
2019-02-10T10:18:40.919Z,3.50
2019-02-10T10:21:30.502Z,3.05
2019-02-10T10:24:19.948Z,3.10
2019-02-10T10:27:10.022Z,3.15
2019-02-10T10:29:59.540Z,3.20
2019-02-10T10:32:48.174Z,2.75
2019-02-10T10:35:37.420Z,3.15
2019-02-10T10:38:26.577Z,2.90
2019-02-10T10:41:15.669Z,3.00
2019-02-10T10:44:04.844Z,3.02
2019-02-10T10:46:54.022Z,4.12
2019-02-10T10:49:43.093Z,3.33
2019-02-10T10:52:32.123Z,3.10
2019-02-10T10:55:21.642Z,3.60
2019-02-10T10:58:10.554Z,3.27
2019-02-10T11:01:00.373Z,3.42
2019-02-10T11:03:49.183Z,3.27
2019-02-10T11:06:37.787Z,4.08
2019-02-10T11:09:26.288Z,3.87
2019-02-10T11:12:15.841Z,4.30
2019-02-10T11:15:09.693Z,3.40
2019-02-10T11:17:58.629Z,4.15
2019-02-10T11:20:48.232Z,4.50
2019-02-10T11:23:36.969Z,3.92
2019-02-10T11:26:26.561Z,3.33
2019-02-10T11:29:15.313Z,3.50
2019-02-10T11:32:04.686Z,4.62
2019-02-10T11:34:53.894Z,3.60
2019-02-10T11:37:43.437Z,4.12
2019-02-10T11:40:32.817Z,4.20
2019-02-10T11:43:21.768Z,3.85
2019-02-10T11:46:10.831Z,3.92
2019-02-10T11:48:59.598Z,4.35
2019-02-10T11:51:48.243Z,4.10
2019-02-10T11:54:37.255Z,3.85
2019-02-10T11:57:25.960Z,3.87
2019-02-10T12:00:17.537Z,4.42
2019-02-10T12:03:06.971Z,4.70
2019-02-10T12:05:56.239Z,3.65
2019-02-10T12:08:45.778Z,4.22
2019-02-10T12:11:35.285Z,4.30
2019-02-10T12:14:24.051Z,4.53
2019-02-10T12:17:13.324Z,5.20
2019-02-10T12:20:02.403Z,4.17
2019-02-10T12:22:51.771Z,4.65
2019-02-10T12:25:41.414Z,4.25
2019-02-10T12:28:30.701Z,4.70
2019-02-10T12:31:19.873Z,4.62
2019-02-10T12:34:08.957Z,5.53
2019-02-10T12:36:58.091Z,3.92
2019-02-10T12:39:46.849Z,3.70
2019-02-10T12:42:36.067Z,3.62
2019-02-10T12:45:25.445Z,5.90
2019-02-10T12:48:14.980Z,4.20
2019-02-10T12:51:03.919Z,3.15
2019-02-10T12:53:53.443Z,3.75
2019-02-10T12:56:42.812Z,3.80
2019-02-10T12:59:31.993Z,3.98
2019-02-10T13:02:21.724Z,4.97
2019-02-10T13:05:11.401Z,4.20
2019-02-10T13:08:00.255Z,4.75
2019-02-10T13:10:48.782Z,5.55
2019-02-10T13:13:38.498Z,5.58
2019-02-10T13:16:27.771Z,4.42
2019-02-10T13:19:16.951Z,4.92
2019-02-10T13:22:06.421Z,4.15
2019-02-10T13:24:55.967Z,4.30
2019-02-10T13:27:45.255Z,4.33
2019-02-10T13:30:34.524Z,4.00
2019-02-10T13:33:23.396Z,3.85
2019-02-10T13:36:12.962Z,4.50
2019-02-10T13:39:02.232Z,4.95
2019-02-10T13:41:49.963Z,4.83
2019-02-10T13:44:38.978Z,5.35
2019-02-10T13:47:28.196Z,5.20
2019-02-10T13:50:21.430Z,4.20
2019-02-10T13:53:12.156Z,5.53
2019-02-10T13:56:01.543Z,4.30
2019-02-10T13:58:50.797Z,3.67
2019-02-10T14:01:40.172Z,3.70
2019-02-10T14:04:28.997Z,3.70
2019-02-10T14:07:18.299Z,2.92
2019-02-10T14:10:13.927Z,3.37
2019-02-10T14:13:03.001Z,3.10
2019-02-10T14:15:52.163Z,3.33
2019-02-10T14:18:41.317Z,3.40
2019-02-10T14:21:30.668Z,3.52
2019-02-10T14:24:20.470Z,2.65
2019-02-10T14:27:09.456Z,3.12
2019-02-10T14:29:58.541Z,3.47
2019-02-10T14:32:48.086Z,2.55
2019-02-10T14:35:37.710Z,2.60
2019-02-10T14:38:27.532Z,3.00
2019-02-10T14:41:17.179Z,2.40
2019-02-10T14:44:06.694Z,3.20
2019-02-10T14:46:55.860Z,2.83
2019-02-10T14:49:44.845Z,2.85
2019-02-10T14:52:34.085Z,2.95
2019-02-10T14:55:23.044Z,2.60
2019-02-10T14:58:12.316Z,2.40
2019-02-10T15:01:01.270Z,2.50
2019-02-10T15:03:50.033Z,2.90
2019-02-10T15:06:38.862Z,2.70
2019-02-10T15:09:28.278Z,3.10
2019-02-10T15:12:17.840Z,2.50
2019-02-10T15:15:10.813Z,3.40
2019-02-10T15:18:00.405Z,3.10
2019-02-10T15:20:49.175Z,3.27
2019-02-10T15:23:38.094Z,4.40
2019-02-10T15:26:27.024Z,3.95
2019-02-10T15:29:16.032Z,3.50
2019-02-10T15:32:05.359Z,4.47
2019-02-10T15:34:54.777Z,3.50
2019-02-10T15:37:44.149Z,3.85
2019-02-10T15:40:32.865Z,4.58
2019-02-10T15:43:22.366Z,3.98
2019-02-10T15:46:11.277Z,4.20
2019-02-10T15:49:00.504Z,3.70
2019-02-10T15:51:49.871Z,3.70
2019-02-10T15:54:39.046Z,3.30
2019-02-10T15:57:28.619Z,3.25
2019-02-10T16:00:28.903Z,4.40
2019-02-10T16:03:18.213Z,3.20
2019-02-10T16:06:07.179Z,3.35
2019-02-10T16:08:56.653Z,4.25
2019-02-10T16:11:45.906Z,3.98
2019-02-10T16:14:35.491Z,4.30
2019-02-10T16:17:24.632Z,4.33
2019-02-10T16:20:17.091Z,4.10
2019-02-10T16:23:06.075Z,4.17
2019-02-10T16:25:55.226Z,4.72
2019-02-10T16:28:44.904Z,4.58
2019-02-10T16:31:34.067Z,5.20
2019-02-10T16:34:22.942Z,4.83
2019-02-10T16:37:12.039Z,4.53
2019-02-10T16:40:01.538Z,4.50
2019-02-10T16:42:50.648Z,4.80
2019-02-10T16:45:39.685Z,4.45
2019-02-10T16:48:29.186Z,4.85
2019-02-10T16:51:18.493Z,5.50
2019-02-10T16:54:07.740Z,4.78
2019-02-10T16:56:56.915Z,6.78
2019-02-10T16:59:45.959Z,6.22
2019-02-10T17:02:34.798Z,5.28
2019-02-10T17:05:23.474Z,5.42
2019-02-10T17:08:12.582Z,5.35
2019-02-10T17:11:02.135Z,5.05
2019-02-10T17:13:51.693Z,8.25
2019-02-10T17:16:42.688Z,6.17
2019-02-10T17:19:31.871Z,4.70
2019-02-10T17:22:21.040Z,5.30
2019-02-10T17:25:15.322Z,4.90
2019-02-10T17:28:04.382Z,4.75
2019-02-10T17:30:53.657Z,4.75
2019-02-10T17:33:43.234Z,5.17
2019-02-10T17:36:32.520Z,5.40
2019-02-10T17:39:22.484Z,4.55
2019-02-10T17:42:11.772Z,4.67
2019-02-10T17:45:01.019Z,5.12
2019-02-10T17:47:50.287Z,4.28
2019-02-10T17:50:39.668Z,5.25
2019-02-10T17:53:29.038Z,4.80
2019-02-10T17:56:18.039Z,5.47
2019-02-10T17:59:07.274Z,3.75
2019-02-10T18:01:56.488Z,3.90
2019-02-10T18:04:45.498Z,3.60
2019-02-10T18:07:35.078Z,3.90
2019-02-10T18:10:24.567Z,3.45
2019-02-10T18:13:15.070Z,3.50
2019-02-10T18:16:14.577Z,3.50
2019-02-10T18:19:05.499Z,3.30
2019-02-10T18:21:56.146Z,3.20
2019-02-10T18:24:47.158Z,3.30
2019-02-10T18:27:38.049Z,4.58
2019-02-10T18:30:37.994Z,2.80
2019-02-10T18:33:31.772Z,3.75
2019-02-10T18:36:34.238Z,2.67
2019-02-10T18:39:25.172Z,2.55
2019-02-10T18:42:31.341Z,3.30
2019-02-10T18:45:34.201Z,2.98
2019-02-10T18:48:25.175Z,2.98
2019-02-10T18:51:18.090Z,3.17
2019-02-10T18:54:09.250Z,3.45
2019-02-10T18:56:59.803Z,4.45
2019-02-10T18:59:50.787Z,4.25
2019-02-10T19:02:47.974Z,4.10
2019-02-10T19:05:48.097Z,6.60
2019-02-10T19:08:53.555Z,3.72
2019-02-10T19:11:56.515Z,3.77
2019-02-10T19:14:52.664Z,3.70
2019-02-10T19:17:42.967Z,2.90
2019-02-10T19:20:43.184Z,3.40
2019-02-10T19:23:34.474Z,3.70
2019-02-10T19:26:25.422Z,4.10
2019-02-10T19:29:19.352Z,4.08
2019-02-10T19:32:19.617Z,3.75
2019-02-10T19:35:14.611Z,4.90
2019-02-10T19:38:17.646Z,4.87
2019-02-10T19:41:08.745Z,5.05
2019-02-10T19:43:59.502Z,5.05
2019-02-10T19:46:49.806Z,5.40
2019-02-10T19:49:40.132Z,7.37
2019-02-10T19:52:34.097Z,6.70
2019-02-10T19:55:24.625Z,8.68
2019-02-10T19:58:21.312Z,5.90
2019-02-10T20:01:28.016Z,4.85
2019-02-10T20:04:24.583Z,2.52
2019-02-10T20:07:13.722Z,2.90
2019-02-10T20:10:04.491Z,2.55
2019-02-10T20:12:54.990Z,1.80
2019-02-10T20:16:01.798Z,1.47
2019-02-10T20:19:04.695Z,1.60
2019-02-10T20:22:02.594Z,1.50
2019-02-10T20:24:53.470Z,1.70
2019-02-10T20:27:44.270Z,1.22
2019-02-10T20:30:43.892Z,1.13
2019-02-10T20:33:40.048Z,1.60
2019-02-10T20:36:36.518Z,1.42
2019-02-10T20:39:27.478Z,2.60
2019-02-10T20:42:24.316Z,1.60
2019-02-10T20:45:17.480Z,4.05
2019-02-10T20:48:19.644Z,1.47
2019-02-10T20:51:22.752Z,1.80
2019-02-10T20:54:29.448Z,1.80
2019-02-10T20:57:20.315Z,2.65
2019-02-10T21:00:29.265Z,1.75
2019-02-10T21:03:26.063Z,2.02
2019-02-10T21:06:16.448Z,1.80
2019-02-10T21:09:18.173Z,1.80
2019-02-10T21:12:10.855Z,2.22
2019-02-10T21:15:02.434Z,1.30
2019-02-10T21:17:58.790Z,1.47
2019-02-10T21:21:04.276Z,1.70
2019-02-10T21:23:54.744Z,1.65
2019-02-10T21:26:45.714Z,3.20
2019-02-10T21:29:36.638Z,3.50
2019-02-10T21:32:43.500Z,3.92
2019-02-10T21:35:36.614Z,2.95
2019-02-10T21:38:28.257Z,5.97
2019-02-10T21:41:21.587Z,4.28
2019-02-10T21:44:15.936Z,3.70
2019-02-10T21:47:06.851Z,3.80
2019-02-10T21:49:56.035Z,3.95
2019-02-10T21:52:45.582Z,4.03
2019-02-10T21:55:35.085Z,3.85
2019-02-10T21:58:24.142Z,5.60
2019-02-10T22:01:13.418Z,5.20
2019-02-10T22:04:02.846Z,3.83
2019-02-10T22:06:52.566Z,4.00
2019-02-10T22:09:42.558Z,3.63
